Father Pat — WDG2791 — position and weather

sailwx.info

Track history (hours):
 
Tides and Currents Weather Stations Pressure Air Temp Water Temp Dewpoint Dewpoint Depression Visibility Wind Speed Wind Dir Waves Ship Positions

Father Pat

Owner: Marquette Transportation Company Gulf-Inland, LLC, Jefferson, LA. More information available from US FCC via Universal Licensing System and Coast Guard Vessel Documentation Center.

Last reported at 2015-May-27 16:32 UTC. Time now 2015-Jun-29 23:11 UTC.
Position N 29°23' W 094°46'.
Warning: this ship's position is 33 days out of date.

Type: Towing. MMSI: 367519320.

Date/timePositionNaut miles runAvg speedWind from/ knotsBaromVisibWave heightAir tempDewpointWater temp
2015-May-27 16:32N 29°23' W 094°46'5 5.5
2015-May-27 15:32N 29°27' W 094°51'8 7.7
2015-May-27 14:33N 29°34' W 094°55'7 6.5
2015-May-27 13:33N 29°37' W 095°01'0 0.1
2015-May-27 12:33N 29°37' W 095°01'0 0.0
2015-May-27 11:33N 29°37' W 095°01'3 3.5
2015-May-27 10:33N 29°39' W 094°58'8 7.4
2015-May-27 09:33N 29°45' W 095°04'2 2.1
2015-May-27 08:33N 29°46' W 095°05'1 0.5
2015-May-27 07:33N 29°46' W 095°06'0 0.0
2015-May-27 05:16N 29°46' W 095°06'0 0.0
2015-May-27 04:32N 29°46' W 095°06'0 0.0
2015-May-27 03:06N 29°46' W 095°06'0 0.0
2015-May-27 02:28N 29°46' W 095°06'0 0.0
2015-May-27 01:11N 29°46' W 095°06'0 0.0
2015-May-27 00:19N 29°46' W 095°06'0 0.6
2015-May-26 23:33N 29°46' W 095°06'0 0.4
2015-May-26 22:09N 29°46' W 095°06'0 0.8
2015-May-26 21:33N 29°46' W 095°06'0 0.0
2015-May-26 20:33N 29°46' W 095°06'0 0.0
2015-May-26 19:33N 29°46' W 095°06'0 0.0
2015-May-26 18:33N 29°46' W 095°06'0 0.0
2015-May-26 17:33N 29°46' W 095°06'0 0.0
2015-May-26 16:33N 29°46' W 095°06'0 0.0
2015-May-26 15:33N 29°46' W 095°06'0 0.0
2015-May-26 14:33N 29°46' W 095°06'0 0.2
2015-May-26 13:33N 29°45' W 095°06'0 0.0
2015-May-26 12:33N 29°46' W 095°06'0 0.0
2015-May-26 11:33N 29°46' W 095°06'0 0.3
2015-May-26 10:33N 29°46' W 095°06'0 0.2
2015-May-26 09:33N 29°46' W 095°06'0 0.0
2015-May-26 08:33N 29°46' W 095°06'0 0.0
2015-May-26 07:33N 29°46' W 095°06'0 0.0
2015-May-26 06:33N 29°46' W 095°06'0 0.0
2015-May-26 05:33N 29°46' W 095°06'0 0.0
2015-May-26 04:33N 29°46' W 095°06'0 0.0
2015-May-26 03:33N 29°46' W 095°06'2 2.0
2015-May-26 02:20N 29°47' W 095°04'5 6.6
2015-May-26 01:33N 29°43' W 095°01'8 8.2
2015-May-26 00:33N 29°36' W 094°56'15 1.9
2015-May-25 16:24N 29°23' W 094°46'3 3.1
2015-May-25 15:33N 29°24' W 094°49'5 5.0
2015-May-25 14:33N 29°28' W 094°51'5 5.1
2015-May-25 13:33N 29°33' W 094°54'5 5.3
2015-May-25 12:33N 29°37' W 094°58'5 5.3
2015-May-25 11:33N 29°42' W 095°01'5 5.3
2015-May-25 10:33N 29°46' W 095°05'4 4.5
2015-May-25 09:33N 29°45' W 095°10'0 0.4
2015-May-25 08:33N 29°45' W 095°10'0 0.1
2015-May-25 07:33N 29°45' W 095°10'0 0.0
2015-May-25 06:33N 29°45' W 095°10'0 0.1
2015-May-25 05:33N 29°45' W 095°10'0 0.1
2015-May-25 04:33N 29°45' W 095°10'5 4.8
2015-May-25 03:33N 29°47' W 095°05'0 0.2
2015-May-25 02:33N 29°47' W 095°05'1 0.6
2015-May-25 01:31N 29°47' W 095°04'0 0.2
2015-May-25 00:33N 29°47' W 095°04'4 3.9
2015-May-24 23:33N 29°44' W 095°02'5 4.9
2015-May-24 22:33N 29°40' W 094°58'6 6.0
2015-May-24 21:33N 29°34' W 094°56'6 5.7
2015-May-24 20:33N 29°30' W 094°52'  
2015-May-21 08:25N 29°29' W 094°52'4 5.1
2015-May-21 07:33N 29°33' W 094°54'5 4.7
2015-May-21 06:33N 29°37' W 094°57'5 4.9
2015-May-21 05:33N 29°41' W 094°59'4 4.3
2015-May-21 04:32N 29°44' W 095°03'3 3.3
2015-May-21 03:32N 29°44' W 095°07'3 3.0
2015-May-21 02:33N 29°45' W 095°10'1 0.5
2015-May-21 01:33N 29°45' W 095°11'0 0.1
2015-May-21 00:33N 29°45' W 095°11'0 0.1
2015-May-20 23:33N 29°45' W 095°11'0 0.2
2015-May-20 22:33N 29°45' W 095°11'0 0.5
2015-May-20 21:33N 29°45' W 095°10'2 1.8
2015-May-20 20:33N 29°44' W 095°09'3 3.1
2015-May-20 19:30N 29°46' W 095°06'0 0.1
2015-May-20 15:17N 29°46' W 095°06'0 0.0
2015-May-20 13:27N 29°46' W 095°06'0 0.0
2015-May-20 12:27N 29°46' W 095°06'0 0.0
2015-May-20 01:11N 29°46' W 095°06'0 0.0
2015-May-19 23:25N 29°46' W 095°06'1 0.6
2015-May-19 21:33N 29°45' W 095°06'4 3.8
2015-May-19 20:33N 29°45' W 095°10'0 0.4
2015-May-19 19:33N 29°45' W 095°10'1 1.3
2015-May-19 18:33N 29°44' W 095°09'4 4.3
2015-May-19 17:33N 29°46' W 095°05'4 4.2
2015-May-19 16:33N 29°43' W 095°01'4 4.5
2015-May-19 15:33N 29°39' W 094°58'5 5.1
2015-May-19 14:33N 29°35' W 094°56'6 5.4
2015-May-19 13:28N 29°30' W 094°52'  
Track history (hours):
 
Tides and Currents Weather Stations Pressure Air Temp Water Temp Dewpoint Dewpoint Depression Visibility Wind Speed Wind Dir Waves Ship Positions

Father Pat

Owner: Marquette Transportation Company Gulf-Inland, LLC, Jefferson, LA. More information available from US FCC via Universal Licensing System and Coast Guard Vessel Documentation Center.

Last reported at 2015-May-27 16:32 UTC. Time now 2015-Jun-29 23:11 UTC.
Position N 29°23' W 094°46'.
Warning: this ship's position is 33 days out of date.

Type: Towing. MMSI: 367519320.

Date/timePositionNaut miles runAvg speedWind from/ knotsBaromVisibWave heightAir tempDewpointWater temp
2015-May-27 16:32N 29°23' W 094°46'5 5.5
2015-May-27 15:32N 29°27' W 094°51'8 7.7
2015-May-27 14:33N 29°34' W 094°55'7 6.5
2015-May-27 13:33N 29°37' W 095°01'0 0.1
2015-May-27 12:33N 29°37' W 095°01'0 0.0
2015-May-27 11:33N 29°37' W 095°01'3 3.5
2015-May-27 10:33N 29°39' W 094°58'8 7.4
2015-May-27 09:33N 29°45' W 095°04'2 2.1
2015-May-27 08:33N 29°46' W 095°05'1 0.5
2015-May-27 07:33N 29°46' W 095°06'0 0.0
2015-May-27 05:16N 29°46' W 095°06'0 0.0
2015-May-27 04:32N 29°46' W 095°06'0 0.0
2015-May-27 03:06N 29°46' W 095°06'0 0.0
2015-May-27 02:28N 29°46' W 095°06'0 0.0
2015-May-27 01:11N 29°46' W 095°06'0 0.0
2015-May-27 00:19N 29°46' W 095°06'0 0.6
2015-May-26 23:33N 29°46' W 095°06'0 0.4
2015-May-26 22:09N 29°46' W 095°06'0 0.8
2015-May-26 21:33N 29°46' W 095°06'0 0.0
2015-May-26 20:33N 29°46' W 095°06'0 0.0
2015-May-26 19:33N 29°46' W 095°06'0 0.0
2015-May-26 18:33N 29°46' W 095°06'0 0.0
2015-May-26 17:33N 29°46' W 095°06'0 0.0
2015-May-26 16:33N 29°46' W 095°06'0 0.0
2015-May-26 15:33N 29°46' W 095°06'0 0.0
2015-May-26 14:33N 29°46' W 095°06'0 0.2
2015-May-26 13:33N 29°45' W 095°06'0 0.0
2015-May-26 12:33N 29°46' W 095°06'0 0.0
2015-May-26 11:33N 29°46' W 095°06'0 0.3
2015-May-26 10:33N 29°46' W 095°06'0 0.2
2015-May-26 09:33N 29°46' W 095°06'0 0.0
2015-May-26 08:33N 29°46' W 095°06'0 0.0
2015-May-26 07:33N 29°46' W 095°06'0 0.0
2015-May-26 06:33N 29°46' W 095°06'0 0.0
2015-May-26 05:33N 29°46' W 095°06'0 0.0
2015-May-26 04:33N 29°46' W 095°06'0 0.0
2015-May-26 03:33N 29°46' W 095°06'2 2.0
2015-May-26 02:20N 29°47' W 095°04'5 6.6
2015-May-26 01:33N 29°43' W 095°01'8 8.2
2015-May-26 00:33N 29°36' W 094°56'15 1.9
2015-May-25 16:24N 29°23' W 094°46'3 3.1
2015-May-25 15:33N 29°24' W 094°49'5 5.0
2015-May-25 14:33N 29°28' W 094°51'5 5.1
2015-May-25 13:33N 29°33' W 094°54'5 5.3
2015-May-25 12:33N 29°37' W 094°58'5 5.3
2015-May-25 11:33N 29°42' W 095°01'5 5.3
2015-May-25 10:33N 29°46' W 095°05'4 4.5
2015-May-25 09:33N 29°45' W 095°10'0 0.4
2015-May-25 08:33N 29°45' W 095°10'0 0.1
2015-May-25 07:33N 29°45' W 095°10'0 0.0
2015-May-25 06:33N 29°45' W 095°10'0 0.1
2015-May-25 05:33N 29°45' W 095°10'0 0.1
2015-May-25 04:33N 29°45' W 095°10'5 4.8
2015-May-25 03:33N 29°47' W 095°05'0 0.2
2015-May-25 02:33N 29°47' W 095°05'1 0.6
2015-May-25 01:31N 29°47' W 095°04'0 0.2
2015-May-25 00:33N 29°47' W 095°04'4 3.9
2015-May-24 23:33N 29°44' W 095°02'5 4.9
2015-May-24 22:33N 29°40' W 094°58'6 6.0
2015-May-24 21:33N 29°34' W 094°56'6 5.7
2015-May-24 20:33N 29°30' W 094°52'  
2015-May-21 08:25N 29°29' W 094°52'4 5.1
2015-May-21 07:33N 29°33' W 094°54'5 4.7
2015-May-21 06:33N 29°37' W 094°57'5 4.9
2015-May-21 05:33N 29°41' W 094°59'4 4.3
2015-May-21 04:32N 29°44' W 095°03'3 3.3
2015-May-21 03:32N 29°44' W 095°07'3 3.0
2015-May-21 02:33N 29°45' W 095°10'1 0.5
2015-May-21 01:33N 29°45' W 095°11'0 0.1
2015-May-21 00:33N 29°45' W 095°11'0 0.1
2015-May-20 23:33N 29°45' W 095°11'0 0.2
2015-May-20 22:33N 29°45' W 095°11'0 0.5
2015-May-20 21:33N 29°45' W 095°10'2 1.8
2015-May-20 20:33N 29°44' W 095°09'3 3.1
2015-May-20 19:30N 29°46' W 095°06'0 0.1
2015-May-20 15:17N 29°46' W 095°06'0 0.0
2015-May-20 13:27N 29°46' W 095°06'0 0.0
2015-May-20 12:27N 29°46' W 095°06'0 0.0
2015-May-20 01:11N 29°46' W 095°06'0 0.0
2015-May-19 23:25N 29°46' W 095°06'1 0.6
2015-May-19 21:33N 29°45' W 095°06'4 3.8
2015-May-19 20:33N 29°45' W 095°10'0 0.4
2015-May-19 19:33N 29°45' W 095°10'1 1.3
2015-May-19 18:33N 29°44' W 095°09'4 4.3
2015-May-19 17:33N 29°46' W 095°05'4 4.2
2015-May-19 16:33N 29°43' W 095°01'4 4.5
2015-May-19 15:33N 29°39' W 094°58'5 5.1
2015-May-19 14:33N 29°35' W 094°56'6 5.4
2015-May-19 13:28N 29°30' W 094°52'  

Dump ship's entire track history